Time;durP1;ratioP1;P1;durP2;ratioP2;P2;SDS_P1;SDS_P2;PMS_P1;PMS_P2;Temp;Humidity;BMP_temperature;BMP_pressure;BME280_temperature;BME280_humidity;BME280_pressure;Samples;Min_cycle;Max_cycle;Signal;HPM_P1;HPM_P2
2022/04/05 00:00:42;;;;;;;13.33;9.70;;;;;;;-143.11;100.00;65634.97;5077122;28;20202;-52
2022/04/05 00:03:08;;;;;;;12.83;9.33;;;;;;;-143.11;100.00;65634.97;5077364;28;20184;-52
2022/04/05 00:05:33;;;;;;;13.03;9.47;;;;;;;-143.11;100.00;65634.97;5077316;28;20189;-53
2022/04/05 00:07:59;;;;;;;15.00;10.17;;;;;;;-143.11;100.00;65634.97;5077475;28;20184;-49
2022/04/05 00:10:24;;;;;;;14.30;9.63;;;;;;;-143.11;100.00;65634.97;5077101;28;20184;-60
2022/04/05 00:12:49;;;;;;;13.43;9.87;;;;;;;-143.11;100.00;65634.97;5077152;28;20219;-60
2022/04/05 00:15:15;;;;;;;12.73;9.00;;;;;;;-143.11;100.00;65634.97;5077523;28;20193;-61
2022/04/05 00:17:41;;;;;;;14.77;9.53;;;;;;;-143.11;100.00;65634.97;5077256;28;20188;-60
2022/04/05 00:20:07;;;;;;;11.80;8.90;;;;;;;-143.11;100.00;65634.97;5077090;28;20192;-61
2022/04/05 00:22:33;;;;;;;12.27;9.00;;;;;;;-143.11;100.00;65634.97;5077084;28;20195;-60
2022/04/05 00:24:58;;;;;;;16.60;9.97;;;;;;;-143.11;100.00;65634.97;5077137;28;20295;-62
2022/04/05 00:27:24;;;;;;;11.87;8.77;;;;;;;-143.11;100.00;65634.97;5077213;28;20319;-58
2022/04/05 00:29:49;;;;;;;15.20;9.83;;;;;;;-143.11;100.00;65634.97;5076840;28;20268;-63
2022/04/05 00:32:14;;;;;;;12.73;9.27;;;;;;;-143.11;100.00;65634.97;5076683;28;20208;-63
2022/04/05 00:34:40;;;;;;;10.50;8.60;;;;;;;-143.11;100.00;65634.97;5077032;28;20201;-63
2022/04/05 00:37:06;;;;;;;14.20;9.83;;;;;;;-143.11;100.00;65634.97;5076672;28;20189;-63
2022/04/05 00:39:31;;;;;;;15.07;9.67;;;;;;;-143.11;100.00;65634.97;5076803;28;20188;-64
2022/04/05 00:41:57;;;;;;;14.83;10.27;;;;;;;-143.11;100.00;65634.97;5076890;28;20184;-63
2022/04/05 00:44:23;;;;;;;14.30;9.50;;;;;;;-143.11;100.00;65634.97;5076737;28;20177;-54
2022/04/05 00:46:51;;;;;;;14.70;10.10;;;;;;;-143.11;100.00;65634.97;5077020;28;20185;-59
2022/04/05 00:49:31;;;;;;;14.03;10.53;;;;;;;-143.11;100.00;65634.97;5076531;28;20294;-60
2022/04/05 00:51:58;;;;;;;12.47;9.33;;;;;;;-143.11;100.00;65634.97;5076417;28;20264;-59
2022/04/05 00:54:25;;;;;;;13.83;9.60;;;;;;;-143.11;100.00;65634.97;5076678;28;20184;-59
2022/04/05 00:56:53;;;;;;;13.23;9.93;;;;;;;-143.11;100.00;65634.97;5076395;28;20196;-60
2022/04/05 00:59:19;;;;;;;12.73;9.30;;;;;;;-143.11;100.00;65634.97;5076248;28;20218;-59
2022/04/05 01:01:46;;;;;;;13.00;9.90;;;;;;;-143.11;100.00;65634.97;5076575;28;20229;-53
2022/04/05 01:04:12;;;;;;;15.00;10.10;;;;;;;-143.11;100.00;65634.97;5076811;28;20189;-62
2022/04/05 01:06:44;;;;;;;14.13;9.97;;;;;;;-143.11;100.00;65634.97;5076246;28;20191;-63
2022/04/05 01:09:10;;;;;;;13.57;9.73;;;;;;;-143.11;100.00;65634.97;5075983;28;20185;-63
2022/04/05 01:11:36;;;;;;;14.77;10.23;;;;;;;-143.11;100.00;65634.97;5076202;28;20294;-64
2022/04/05 01:14:02;;;;;;;12.60;9.53;;;;;;;-143.11;100.00;65634.97;5075843;28;20184;-64
2022/04/05 01:16:27;;;;;;;13.43;9.13;;;;;;;-143.11;100.00;65634.97;5076108;28;20330;-63
2022/04/05 01:18:53;;;;;;;14.43;9.40;;;;;;;-143.11;100.00;65634.97;5076384;28;20175;-63
2022/04/05 01:21:19;;;;;;;13.57;9.30;;;;;;;-143.11;100.00;65634.97;5076501;28;20188;-53
2022/04/05 01:24:06;;;;;;;12.80;9.33;;;;;;;-143.11;100.00;65634.97;5094049;28;20239;-63
2022/04/05 01:26:39;;;;;;;12.27;9.13;;;;;;;-143.11;100.00;65634.97;5075917;28;20215;-62
2022/04/05 01:29:05;;;;;;;12.53;8.57;;;;;;;-143.11;100.00;65634.97;5075902;28;20208;-63
2022/04/05 01:31:30;;;;;;;11.30;8.83;;;;;;;-143.11;100.00;65634.97;5075800;28;20247;-63
2022/04/05 01:33:57;;;;;;;13.17;8.50;;;;;;;-143.11;100.00;65634.97;5076006;28;20184;-62
2022/04/05 01:36:25;;;;;;;12.20;8.63;;;;;;;-143.11;100.00;65634.97;5075859;28;20195;-61
2022/04/05 01:38:51;;;;;;;11.73;8.90;;;;;;;-143.11;100.00;65634.97;5076125;28;20208;-63
2022/04/05 01:41:16;;;;;;;12.07;8.47;;;;;;;-143.11;100.00;65634.97;5076050;28;20271;-63
2022/04/05 01:43:42;;;;;;;12.23;9.10;;;;;;;-143.11;100.00;65634.97;5075848;28;20176;-64
2022/04/05 01:46:07;;;;;;;12.57;8.70;;;;;;;-143.11;100.00;65634.97;5075989;28;20180;-63
2022/04/05 01:48:32;;;;;;;12.47;8.33;;;;;;;-143.11;100.00;65634.97;5075728;28;20188;-63
2022/04/05 01:50:58;;;;;;;12.47;8.60;;;;;;;-143.11;100.00;65634.97;5075586;28;20215;-63
2022/04/05 01:53:23;;;;;;;11.00;8.57;;;;;;;-143.11;100.00;65634.97;5075500;28;20195;-64
2022/04/05 01:55:48;;;;;;;10.60;8.00;;;;;;;-143.11;100.00;65634.97;5075620;28;20203;-63
2022/04/05 01:58:14;;;;;;;10.67;8.33;;;;;;;-143.11;100.00;65634.97;5075536;28;20187;-64
2022/04/05 02:00:39;;;;;;;11.97;8.23;;;;;;;-143.11;100.00;65634.97;5075475;28;20215;-60
2022/04/05 02:03:05;;;;;;;12.17;8.37;;;;;;;-143.11;100.00;65634.97;5075521;28;20188;-59
2022/04/05 02:05:30;;;;;;;12.30;8.53;;;;;;;-143.11;100.00;65634.97;5074691;28;20293;-59
2022/04/05 02:07:55;;;;;;;11.27;8.43;;;;;;;-143.11;100.00;65634.97;5075457;28;20202;-60
2022/04/05 02:10:20;;;;;;;14.67;8.53;;;;;;;-143.11;100.00;65634.97;5075396;28;20188;-59
2022/04/05 02:12:46;;;;;;;12.43;8.40;;;;;;;-143.11;100.00;65634.97;5075138;28;20216;-60
2022/04/05 02:15:12;;;;;;;11.03;8.40;;;;;;;-143.11;100.00;65634.97;5075301;28;20264;-60
2022/04/05 02:17:37;;;;;;;11.77;7.70;;;;;;;-143.11;100.00;65634.97;5075629;28;20192;-58
2022/04/05 02:20:04;;;;;;;10.50;8.10;;;;;;;-143.11;100.00;65634.97;5075421;28;20186;-62
2022/04/05 02:22:29;;;;;;;11.53;8.10;;;;;;;-143.11;100.00;65634.97;5074977;28;20189;-62
2022/04/05 02:24:55;;;;;;;9.57;7.40;;;;;;;-143.11;100.00;65634.97;5074991;28;20276;-63
2022/04/05 02:27:20;;;;;;;12.77;8.37;;;;;;;-143.11;100.00;65634.97;5075145;28;20222;-63
2022/04/05 02:29:45;;;;;;;12.03;8.20;;;;;;;-143.11;100.00;65634.97;5075217;28;20244;-62
2022/04/05 02:32:11;;;;;;;11.53;8.07;;;;;;;-143.11;100.00;65634.97;5075309;28;20208;-63
2022/04/05 02:34:36;;;;;;;11.43;7.70;;;;;;;-143.11;100.00;65634.97;5075129;28;20219;-60
2022/04/05 02:37:01;;;;;;;8.40;6.33;;;;;;;-143.11;100.00;65634.97;5075190;28;20184;-52
2022/04/05 02:39:27;;;;;;;8.47;6.57;;;;;;;-143.11;100.00;65634.97;5092925;28;20177;-51
2022/04/05 02:41:52;;;;;;;8.87;6.53;;;;;;;-143.11;100.00;65634.97;5074568;28;20191;-51
2022/04/05 02:44:17;;;;;;;7.73;6.10;;;;;;;-143.11;100.00;65634.97;5074591;28;20184;-54
2022/04/05 02:46:43;;;;;;;7.67;6.47;;;;;;;-143.11;100.00;65634.97;5075102;28;20176;-51
2022/04/05 02:49:09;;;;;;;10.43;7.87;;;;;;;-143.11;100.00;65634.97;5074956;28;20196;-52
2022/04/05 02:51:34;;;;;;;8.30;6.17;;;;;;;-143.11;100.00;65634.97;5074685;28;20211;-60
2022/04/05 02:53:59;;;;;;;9.97;6.30;;;;;;;-143.11;100.00;65634.97;5074930;28;20193;-53
2022/04/05 02:56:25;;;;;;;9.73;6.30;;;;;;;-143.11;100.00;65634.97;5074983;28;20270;-53
2022/04/05 02:58:50;;;;;;;7.53;5.77;;;;;;;-143.11;100.00;65634.97;5074765;28;20220;-54
2022/04/05 03:01:16;;;;;;;8.63;6.20;;;;;;;-143.11;100.00;65634.97;5074731;28;20295;-54
2022/04/05 03:03:41;;;;;;;7.80;6.10;;;;;;;-143.11;100.00;65634.97;5074438;28;20188;-54
2022/04/05 03:06:07;;;;;;;8.20;5.83;;;;;;;-143.11;100.00;65634.97;5074553;28;20184;-50
2022/04/05 03:08:32;;;;;;;9.03;6.47;;;;;;;-143.11;100.00;65634.97;5074640;28;20227;-52
2022/04/05 03:10:57;;;;;;;7.63;5.73;;;;;;;-143.11;100.00;65634.97;5074574;28;20279;-47
2022/04/05 03:13:23;;;;;;;8.03;6.13;;;;;;;-143.11;100.00;65634.97;5074518;28;20181;-59
2022/04/05 03:15:48;;;;;;;8.93;6.17;;;;;;;-143.11;100.00;65634.97;5075395;28;20463;-60
2022/04/05 03:18:13;;;;;;;8.47;5.90;;;;;;;-143.11;100.00;65634.97;5078327;28;20184;-59
2022/04/05 03:20:39;;;;;;;8.37;5.97;;;;;;;-143.11;100.00;65634.97;5078086;28;20195;-59
2022/04/05 03:23:05;;;;;;;6.93;5.77;;;;;;;-143.11;100.00;65634.97;5078016;28;20222;-59
2022/04/05 03:25:30;;;;;;;6.30;5.13;;;;;;;-143.11;100.00;65634.97;5077644;28;20209;-59
2022/04/05 03:28:00;;;;;;;7.27;5.73;;;;;;;-143.11;100.00;65634.97;5077970;28;20209;-59
2022/04/05 03:30:26;;;;;;;6.77;5.60;;;;;;;-143.11;100.00;65634.97;5077864;28;20217;-48
2022/04/05 03:32:51;;;;;;;7.57;5.77;;;;;;;-143.11;100.00;65634.97;5077688;28;20248;-52
2022/04/05 03:35:17;;;;;;;7.50;5.17;;;;;;;-143.11;100.00;65634.97;5077612;28;20234;-49
2022/04/05 03:37:42;;;;;;;8.23;6.20;;;;;;;-143.11;100.00;65634.97;5077587;28;20186;-55
2022/04/05 03:40:08;;;;;;;10.33;7.00;;;;;;;-143.11;100.00;65634.97;5077732;28;20197;-50
2022/04/05 03:42:34;;;;;;;8.57;6.93;;;;;;;-143.11;100.00;65634.97;5077531;28;20218;-50
2022/04/05 03:45:00;;;;;;;8.53;5.93;;;;;;;-143.11;100.00;65634.97;5077749;28;20251;-48
2022/04/05 03:47:27;;;;;;;9.47;5.93;;;;;;;-143.11;100.00;65634.97;5077721;28;20185;-63
2022/04/05 03:49:53;;;;;;;6.93;5.67;;;;;;;-143.11;100.00;65634.97;5077774;28;20209;-59
2022/04/05 03:52:19;;;;;;;8.10;5.60;;;;;;;-143.11;100.00;65634.97;5077548;28;20272;-50
2022/04/05 03:54:44;;;;;;;6.77;5.27;;;;;;;-143.11;100.00;65634.97;5077348;28;20188;-50
2022/04/05 03:57:10;;;;;;;8.53;6.13;;;;;;;-143.11;100.00;65634.97;5095311;28;20196;-49
2022/04/05 03:59:35;;;;;;;8.37;6.10;;;;;;;-143.11;100.00;65634.97;5077510;28;20215;-50
2022/04/05 04:02:00;;;;;;;10.10;6.47;;;;;;;-143.11;100.00;65634.97;5077697;28;20185;-53
2022/04/05 04:04:25;;;;;;;9.13;7.30;;;;;;;-143.11;100.00;65634.97;5077326;28;20232;-51
2022/04/05 04:06:51;;;;;;;9.77;6.57;;;;;;;-143.11;100.00;65634.97;5077318;28;20226;-51
2022/04/05 04:09:16;;;;;;;7.77;6.03;;;;;;;-143.11;100.00;65634.97;5077363;28;20262;-51
2022/04/05 04:11:42;;;;;;;8.40;5.87;;;;;;;-143.11;100.00;65634.97;5077064;28;20214;-52
2022/04/05 04:14:08;;;;;;;9.33;6.73;;;;;;;-143.11;100.00;65634.97;5076870;28;20230;-54
2022/04/05 04:16:33;;;;;;;9.37;6.60;;;;;;;-143.11;100.00;65634.97;5076923;28;20249;-49
2022/04/05 04:18:59;;;;;;;8.23;5.90;;;;;;;-143.11;100.00;65634.97;5077290;28;20452;-51
2022/04/05 04:21:24;;;;;;;7.83;5.93;;;;;;;-143.11;100.00;65634.97;5076943;28;20192;-52
2022/04/05 04:23:49;;;;;;;9.07;5.90;;;;;;;-143.11;100.00;65634.97;5077265;28;20287;-60
2022/04/05 04:26:15;;;;;;;7.80;6.10;;;;;;;-143.11;100.00;65634.97;5077241;28;20209;-59
2022/04/05 04:28:40;;;;;;;6.40;5.40;;;;;;;-143.11;100.00;65634.97;5076764;28;20194;-59
2022/04/05 04:31:05;;;;;;;7.83;5.17;;;;;;;-143.11;100.00;65634.97;5076826;28;20210;-59
2022/04/05 04:33:31;;;;;;;7.13;5.70;;;;;;;-143.11;100.00;65634.97;5076882;28;20238;-60
2022/04/05 04:35:57;;;;;;;7.10;5.43;;;;;;;-143.11;100.00;65634.97;5076788;28;20193;-59
2022/04/05 04:38:23;;;;;;;8.03;5.40;;;;;;;-143.11;100.00;65634.97;5077170;28;20219;-59
2022/04/05 04:40:50;;;;;;;6.23;5.03;;;;;;;-143.11;100.00;65634.97;5076458;28;20200;-59
2022/04/05 04:43:17;;;;;;;6.67;5.00;;;;;;;-143.11;100.00;65634.97;5076798;28;20196;-50
2022/04/05 04:45:42;;;;;;;7.80;5.90;;;;;;;-143.11;100.00;65634.97;5076352;28;20245;-60
2022/04/05 04:48:07;;;;;;;7.13;5.40;;;;;;;-143.11;100.00;65634.97;5075931;28;20216;-59
2022/04/05 04:50:33;;;;;;;6.93;5.53;;;;;;;-143.11;100.00;65634.97;5076636;28;20173;-60
2022/04/05 04:52:58;;;;;;;9.37;5.53;;;;;;;-143.11;100.00;65634.97;5076652;28;20216;-60
2022/04/05 04:55:25;;;;;;;7.97;5.80;;;;;;;-143.11;100.00;65634.97;5076599;28;20188;-61
2022/04/05 04:57:51;;;;;;;7.87;5.93;;;;;;;-143.11;100.00;65634.97;5076559;28;20193;-60
2022/04/05 05:00:17;;;;;;;8.23;5.40;;;;;;;-143.11;100.00;65634.97;5076455;28;20190;-64
2022/04/05 05:02:44;;;;;;;9.57;6.73;;;;;;;-143.11;100.00;65634.97;5076496;28;20196;-61
2022/04/05 05:05:09;;;;;;;8.10;5.70;;;;;;;-143.11;100.00;65634.97;5076293;28;20193;-60
2022/04/05 05:07:35;;;;;;;7.93;6.13;;;;;;;-143.11;100.00;65634.97;5076284;28;20197;-59
2022/04/05 05:10:00;;;;;;;7.93;5.70;;;;;;;-143.11;100.00;65634.97;5075977;28;20283;-60
2022/04/05 05:12:25;;;;;;;8.37;6.30;;;;;;;-143.11;100.00;65634.97;5075912;28;20216;-59
2022/04/05 05:14:51;;;;;;;8.10;6.07;;;;;;;-143.11;100.00;65634.97;5076427;28;20240;-60
2022/04/05 05:17:16;;;;;;;7.23;5.93;;;;;;;-143.11;100.00;65634.97;5075870;28;20184;-59
2022/04/05 05:19:41;;;;;;;7.10;5.73;;;;;;;-143.11;100.00;65634.97;5075975;28;20196;-49
2022/04/05 05:22:07;;;;;;;8.57;6.10;;;;;;;-143.11;100.00;65634.97;5076239;28;20181;-59
2022/04/05 05:24:33;;;;;;;8.60;5.67;;;;;;;-143.11;100.00;65634.97;5076168;28;20209;-60
2022/04/05 05:26:58;;;;;;;9.87;7.23;;;;;;;-143.11;100.00;65634.97;5075835;28;20272;-59
2022/04/05 05:29:24;;;;;;;7.93;6.00;;;;;;;-143.11;100.00;65634.97;5076066;28;20238;-60
2022/04/05 05:31:49;;;;;;;8.20;6.23;;;;;;;-143.11;100.00;65634.97;5075509;28;20209;-59
2022/04/05 05:34:21;;;;;;;11.87;6.50;;;;;;;-143.11;100.00;65634.97;5075780;28;20189;-60
2022/04/05 05:36:46;;;;;;;10.80;6.80;;;;;;;-143.11;100.00;65634.97;5075590;28;20287;-60
2022/04/05 05:39:11;;;;;;;9.73;6.37;;;;;;;-143.11;100.00;65634.97;5074141;28;20254;-59
2022/04/05 05:41:38;;;;;;;7.77;5.80;;;;;;;-143.11;100.00;65634.97;5075815;28;20185;-51
2022/04/05 05:44:04;;;;;;;8.40;6.27;;;;;;;-143.11;100.00;65634.97;5075555;28;20204;-48
2022/04/05 05:46:29;;;;;;;7.90;6.07;;;;;;;-143.11;100.00;65634.97;5093528;28;20213;-51
2022/04/05 05:48:54;;;;;;;7.97;5.90;;;;;;;-143.11;100.00;65634.97;5075433;28;20268;-51
2022/04/05 05:51:20;;;;;;;8.43;5.80;;;;;;;-143.11;100.00;65634.97;5075577;28;20189;-54
2022/04/05 05:53:45;;;;;;;6.97;5.43;;;;;;;-143.11;100.00;65634.97;5075614;28;20184;-53
2022/04/05 05:56:10;;;;;;;7.13;5.40;;;;;;;-143.11;100.00;65634.97;5075387;28;20195;-59
2022/04/05 05:58:36;;;;;;;10.07;6.00;;;;;;;-143.11;100.00;65634.97;5075352;28;20216;-65
2022/04/05 06:01:01;;;;;;;7.43;5.50;;;;;;;-143.11;100.00;65634.97;5075685;28;20197;-61
2022/04/05 06:03:26;;;;;;;7.43;5.37;;;;;;;-143.11;100.00;65634.97;5075285;28;20221;-61
2022/04/05 06:05:52;;;;;;;8.90;5.50;;;;;;;-143.11;100.00;65634.97;5075322;28;20220;-63
2022/04/05 06:08:17;;;;;;;7.40;5.43;;;;;;;-143.11;100.00;65634.97;5075154;28;20185;-60
2022/04/05 06:10:43;;;;;;;8.47;5.60;;;;;;;-143.11;100.00;65634.97;5075097;28;20316;-60
2022/04/05 06:13:08;;;;;;;9.00;5.60;;;;;;;-143.11;100.00;65634.97;5074981;28;20273;-60
2022/04/05 06:15:34;;;;;;;7.43;5.73;;;;;;;-143.11;100.00;65634.97;5075331;28;20201;-65
2022/04/05 06:17:59;;;;;;;9.00;5.73;;;;;;;-143.11;100.00;65634.97;5074962;28;20185;-52
2022/04/05 06:20:27;;;;;;;7.40;5.27;;;;;;;-143.11;100.00;65634.97;5075135;28;20250;-50
2022/04/05 06:23:03;;;;;;;8.53;5.97;;;;;;;-143.11;100.00;65634.97;5075197;28;20216;-51
2022/04/05 06:25:31;;;;;;;7.50;5.97;;;;;;;-143.11;100.00;65634.97;5092668;28;20342;-54
2022/04/05 06:28:01;;;;;;;8.13;5.47;;;;;;;-143.11;100.00;65634.97;5074920;28;20200;-50
2022/04/05 06:30:27;;;;;;;9.80;5.70;;;;;;;-143.11;100.00;65634.97;5074913;28;20188;-52
2022/04/05 06:33:13;;;;;;;7.43;5.90;;;;;;;-143.11;100.00;65634.97;5074768;28;20236;-63
2022/04/05 06:35:47;;;;;;;8.47;6.60;;;;;;;-143.11;100.00;65634.97;5075048;28;20188;-64
2022/04/05 06:38:14;;;;;;;8.93;6.10;;;;;;;-143.11;100.00;65634.97;5074069;28;20196;-64
2022/04/05 06:40:43;;;;;;;9.50;5.80;;;;;;;-143.11;100.00;65634.97;5092733;28;20194;-65
2022/04/05 06:43:10;;;;;;;12.37;7.83;;;;;;;-143.11;100.00;65634.97;5074779;28;20190;-63
2022/04/05 06:45:35;;;;;;;9.30;6.20;;;;;;;-143.11;100.00;65634.97;5074621;28;20201;-64
2022/04/05 06:48:02;;;;;;;8.90;6.50;;;;;;;-143.11;100.00;65634.97;5074557;28;20198;-63
2022/04/05 06:50:27;;;;;;;11.60;6.70;;;;;;;-143.11;100.00;65634.97;5074555;28;20193;-63
2022/04/05 06:52:55;;;;;;;8.17;6.00;;;;;;;-143.11;100.00;65634.97;5074965;28;20219;-50
2022/04/05 06:55:21;;;;;;;9.30;6.30;;;;;;;-143.11;100.00;65634.97;5074775;28;20193;-60
2022/04/05 06:57:47;;;;;;;9.93;6.43;;;;;;;-143.11;100.00;65634.97;5074384;28;20234;-59
2022/04/05 07:00:14;;;;;;;9.43;6.67;;;;;;;-143.11;100.00;65634.97;5074788;28;20184;-59
2022/04/05 07:02:40;;;;;;;8.47;6.43;;;;;;;-143.11;100.00;65634.97;5074291;28;20307;-60
2022/04/05 07:05:06;;;;;;;8.37;5.97;;;;;;;-143.11;100.00;65634.97;5074534;28;20193;-60
2022/04/05 07:07:32;;;;;;;9.40;6.10;;;;;;;-143.11;100.00;65634.97;5074467;28;20215;-60
2022/04/05 07:09:57;;;;;;;9.80;6.50;;;;;;;-143.11;100.00;65634.97;5074660;28;20191;-47
2022/04/05 07:12:23;;;;;;;8.23;6.17;;;;;;;-143.11;100.00;65634.97;5074488;28;20227;-54
2022/04/05 07:14:49;;;;;;;7.87;6.30;;;;;;;-143.11;100.00;65634.97;5074452;28;20191;-50
2022/04/05 07:17:14;;;;;;;7.50;5.63;;;;;;;-143.11;100.00;65634.97;5074425;28;20280;-48
2022/04/05 07:19:39;;;;;;;8.30;6.13;;;;;;;-143.11;100.00;65634.97;5074282;28;20565;-50
2022/04/05 07:22:05;;;;;;;10.07;6.90;;;;;;;-143.11;100.00;65634.97;5074513;28;20246;-49
2022/04/05 07:24:30;;;;;;;9.03;6.60;;;;;;;-143.11;100.00;65634.97;5074443;28;20213;-49
2022/04/05 07:26:55;;;;;;;11.47;6.73;;;;;;;-143.11;100.00;65634.97;5074219;28;20262;-48
2022/04/05 07:29:21;;;;;;;9.03;6.60;;;;;;;-143.11;100.00;65634.97;5074260;28;20181;-52
2022/04/05 07:31:47;;;;;;;8.10;6.40;;;;;;;-143.11;100.00;65634.97;5073850;28;20290;-62
2022/04/05 07:34:12;;;;;;;9.07;6.37;;;;;;;-143.11;100.00;65634.97;5073974;28;20355;-62
2022/04/05 07:36:38;;;;;;;9.20;6.23;;;;;;;-143.11;100.00;65634.97;5073734;28;20186;-62
2022/04/05 07:39:04;;;;;;;7.87;5.83;;;;;;;-143.11;100.00;65634.97;5073847;28;20187;-61
2022/04/05 07:41:29;;;;;;;10.33;6.43;;;;;;;-143.11;100.00;65634.97;5091963;28;20190;-61
2022/04/05 07:43:54;;;;;;;8.33;5.80;;;;;;;-143.11;100.00;65634.97;5073943;28;20181;-62
2022/04/05 07:46:20;;;;;;;9.83;6.10;;;;;;;-143.11;100.00;65634.97;5074121;28;20215;-59
2022/04/05 07:48:47;;;;;;;9.00;6.10;;;;;;;-143.11;100.00;65634.97;5074181;28;20210;-62
2022/04/05 07:51:16;;;;;;;9.83;6.50;;;;;;;-143.11;100.00;65634.97;5073838;28;20183;-46
2022/04/05 07:53:42;;;;;;;8.63;5.97;;;;;;;-143.11;100.00;65634.97;5073925;28;20188;-51
2022/04/05 07:56:09;;;;;;;8.70;6.40;;;;;;;-143.11;100.00;65634.97;5073528;28;20188;-46
2022/04/05 07:58:34;;;;;;;6.97;5.63;;;;;;;-143.11;100.00;65634.97;5074089;28;20187;-47
2022/04/05 08:00:59;;;;;;;7.40;6.30;;;;;;;-143.11;100.00;65634.97;5073585;28;20181;-47
2022/04/05 08:03:25;;;;;;;9.33;6.07;;;;;;;-143.11;100.00;65634.97;5075768;28;20191;-48
2022/04/05 08:05:50;;;;;;;8.23;5.67;;;;;;;-143.11;100.00;65634.97;5077060;28;20179;-47
2022/04/05 08:08:16;;;;;;;6.13;5.00;;;;;;;-143.11;100.00;65634.97;5077209;28;20202;-45
2022/04/05 08:10:42;;;;;;;8.63;5.63;;;;;;;-143.11;100.00;65634.97;5077151;28;20258;-50
2022/04/05 08:13:08;;;;;;;7.27;5.07;;;;;;;-143.11;100.00;65634.97;5077132;28;20208;-48
2022/04/05 08:15:33;;;;;;;9.27;6.10;;;;;;;-143.11;100.00;65634.97;5077212;28;20310;-49
2022/04/05 08:17:59;;;;;;;7.53;5.03;;;;;;;-143.11;100.00;65634.97;5076567;28;20239;-53
2022/04/05 08:20:24;;;;;;;8.43;6.30;;;;;;;-143.11;100.00;65634.97;5077210;28;20242;-45
2022/04/05 08:22:50;;;;;;;6.70;5.23;;;;;;;-143.11;100.00;65634.97;5076873;28;20186;-47
2022/04/05 08:25:16;;;;;;;7.57;4.77;;;;;;;-143.11;100.00;65634.97;5076920;28;20215;-61
2022/04/05 08:27:44;;;;;;;8.10;4.70;;;;;;;-143.11;100.00;65634.97;5076776;28;20183;-58
2022/04/05 08:30:12;;;;;;;8.17;5.43;;;;;;;-143.11;100.00;65634.97;5094409;28;20199;-59
2022/04/05 08:32:42;;;;;;;6.13;4.90;;;;;;;-143.11;100.00;65634.97;5076857;28;20328;-57
2022/04/05 08:35:08;;;;;;;6.53;5.17;;;;;;;-143.11;100.00;65634.97;5076510;28;20193;-58
2022/04/05 08:37:33;;;;;;;6.93;4.60;;;;;;;-143.11;100.00;65634.97;5076857;28;20287;-59
2022/04/05 08:40:00;;;;;;;5.63;4.43;;;;;;;-143.11;100.00;65634.97;5076529;28;20226;-58
2022/04/05 08:42:25;;;;;;;5.90;4.30;;;;;;;-143.11;100.00;65634.97;5077072;28;20207;-61
2022/04/05 08:44:51;;;;;;;8.30;5.87;;;;;;;-143.11;100.00;65634.97;5076571;28;20186;-61
2022/04/05 08:47:23;;;;;;;8.10;5.33;;;;;;;-143.11;100.00;65634.97;5076660;28;20209;-61
2022/04/05 08:49:49;;;;;;;8.90;5.97;;;;;;;-143.11;100.00;65634.97;5076358;28;20240;-61
2022/04/05 08:52:14;;;;;;;6.17;3.93;;;;;;;-143.11;100.00;65634.97;5076428;28;20205;-61
2022/04/05 08:54:40;;;;;;;6.03;4.20;;;;;;;-143.11;100.00;65634.97;5076834;28;20313;-62
2022/04/05 08:57:05;;;;;;;6.13;4.50;;;;;;;-143.11;100.00;65634.97;5076752;28;20231;-62
2022/04/05 08:59:31;;;;;;;7.30;3.90;;;;;;;-143.11;100.00;65634.97;5076449;28;20273;-47
2022/04/05 09:01:56;;;;;;;6.13;4.03;;;;;;;-143.11;100.00;65634.97;5076242;28;20191;-47
2022/04/05 09:04:22;;;;;;;6.43;4.10;;;;;;;-143.11;100.00;65634.97;5076410;28;20191;-60
2022/04/05 09:06:47;;;;;;;6.63;4.30;;;;;;;-143.11;100.00;65634.97;5076489;28;20193;-58
2022/04/05 09:09:17;;;;;;;5.90;3.80;;;;;;;-143.11;100.00;65634.97;5076132;28;20187;-59
2022/04/05 09:11:52;;;;;;;3.83;3.30;;;;;;;-143.11;100.00;65634.97;5076397;28;20203;-59
2022/04/05 09:14:26;;;;;;;3.93;3.13;;;;;;;-143.11;100.00;65634.97;5076053;28;20183;-60
2022/04/05 09:17:05;;;;;;;6.33;3.03;;;;;;;-143.11;100.00;65634.97;5076345;28;20202;-59
2022/04/05 09:19:45;;;;;;;5.73;3.67;;;;;;;-143.11;100.00;65634.97;5075765;28;20237;-52
2022/04/05 09:22:11;;;;;;;3.80;3.40;;;;;;;-143.11;100.00;65634.97;5076076;28;20226;-64
2022/04/05 09:24:45;;;;;;;5.37;3.13;;;;;;;-143.11;100.00;65634.97;5075861;28;20211;-61
2022/04/05 09:27:11;;;;;;;5.40;3.87;;;;;;;-143.11;100.00;65634.97;5075883;28;20283;-63
2022/04/05 09:29:40;;;;;;;4.87;3.40;;;;;;;-143.11;100.00;65634.97;5076231;28;20274;-61
2022/04/05 09:32:06;;;;;;;4.33;3.40;;;;;;;-143.11;100.00;65634.97;5075881;28;20310;-63
2022/04/05 09:34:32;;;;;;;4.30;3.33;;;;;;;-143.11;100.00;65634.97;5075525;28;20277;-63
2022/04/05 09:37:08;;;;;;;4.37;3.40;;;;;;;-143.11;100.00;65634.97;5075756;28;20208;-51
2022/04/05 09:39:33;;;;;;;5.70;3.57;;;;;;;-143.11;100.00;65634.97;5075686;28;20183;-63
2022/04/05 09:42:03;;;;;;;3.60;3.07;;;;;;;-143.11;100.00;65634.97;5075749;28;20252;-51
2022/04/05 09:44:34;;;;;;;4.57;3.57;;;;;;;-143.11;100.00;65634.97;5075550;28;20207;-48
2022/04/05 09:47:17;;;;;;;4.67;3.50;;;;;;;-143.11;100.00;65634.97;5075530;28;20234;-52
2022/04/05 09:49:44;;;;;;;4.03;3.43;;;;;;;-143.11;100.00;65634.97;5075583;28;20192;-52
2022/04/05 09:52:32;;;;;;;5.50;3.10;;;;;;;-143.11;100.00;65634.97;5075997;28;20535;-49
2022/04/05 09:55:15;;;;;;;5.03;3.60;;;;;;;-143.11;100.00;65634.97;5075727;28;20200;-52
2022/04/05 09:57:41;;;;;;;5.77;3.13;;;;;;;-143.11;100.00;65634.97;5075772;28;20195;-65
2022/04/05 10:00:13;;;;;;;5.53;3.47;;;;;;;-143.11;100.00;65634.97;5075652;28;20197;-49
2022/04/05 10:03:01;;;;;;;4.93;3.17;;;;;;;-143.11;100.00;65634.97;5075604;28;20235;-48
2022/04/05 10:05:31;;;;;;;3.37;3.07;;;;;;;-143.11;100.00;65634.97;5075404;28;20246;-47
2022/04/05 10:07:57;;;;;;;4.33;3.30;;;;;;;-143.11;100.00;65634.97;5075366;28;20226;-50
2022/04/05 10:10:23;;;;;;;5.00;4.00;;;;;;;-143.11;100.00;65634.97;5093448;28;20243;-45
2022/04/05 10:12:49;;;;;;;3.90;3.03;;;;;;;-143.11;100.00;65634.97;5075217;28;20227;-55
2022/04/05 10:15:15;;;;;;;4.20;3.00;;;;;;;-143.11;100.00;65634.97;5075277;28;20185;-59
2022/04/05 10:17:47;;;;;;;3.90;3.10;;;;;;;-143.11;100.00;65634.97;5074965;28;20193;-51
2022/04/05 10:20:13;;;;;;;3.67;3.00;;;;;;;-143.11;100.00;65634.97;5075143;28;20215;-50
2022/04/05 10:22:40;;;;;;;4.23;3.33;;;;;;;-143.11;100.00;65634.97;5093329;28;20234;-50
2022/04/05 10:25:07;;;;;;;5.90;3.70;;;;;;;-143.11;100.00;65634.97;5074399;28;20299;-51
2022/04/05 10:27:32;;;;;;;4.83;3.30;;;;;;;-143.11;100.00;65634.97;5072175;28;20185;-46
2022/04/05 10:30:24;;;;;;;5.80;3.33;;;;;;;-143.11;100.00;65634.97;5075001;28;20232;-52
2022/04/05 10:33:08;;;;;;;4.43;3.27;;;;;;;-143.11;100.00;65634.97;5075068;28;20216;-63
2022/04/05 10:35:42;;;;;;;4.50;3.40;;;;;;;-143.11;100.00;65634.97;5075017;28;20199;-62
2022/04/05 10:38:13;;;;;;;5.03;3.50;;;;;;;-143.11;100.00;65634.97;5074912;28;20188;-61
2022/04/05 10:40:38;;;;;;;4.80;3.70;;;;;;;-143.11;100.00;65634.97;5074928;28;20178;-61
2022/04/05 10:43:18;;;;;;;6.40;3.20;;;;;;;-143.11;100.00;65634.97;5075160;28;20202;-62
2022/04/05 10:45:44;;;;;;;3.77;3.17;;;;;;;-143.11;100.00;65634.97;5074802;28;20180;-62
2022/04/05 10:48:16;;;;;;;3.60;3.27;;;;;;;-143.11;100.00;65634.97;5074580;28;20184;-64
2022/04/05 10:51:06;;;;;;;6.07;3.30;;;;;;;-143.11;100.00;65634.97;5075040;28;20208;-59
2022/04/05 10:54:17;;;;;;;3.87;3.47;;;;;;;-143.11;100.00;65634.97;5073914;28;20196;-59
2022/04/05 10:56:26;;;;;;;6.33;3.40;;;;;;;-143.11;100.00;65634.97;5092305;28;20196;-59
2022/04/05 10:58:54;;;;;;;4.37;3.53;;;;;;;-143.11;100.00;65634.97;5074425;28;20189;-58
2022/04/05 11:01:25;;;;;;;3.73;3.17;;;;;;;-143.11;100.00;65634.97;5074695;28;20195;-59
2022/04/05 11:04:21;;;;;;;4.67;3.40;;;;;;;-143.11;100.00;65634.97;5074730;28;20198;-59
2022/04/05 11:06:59;;;;;;;5.00;3.80;;;;;;;-143.11;100.00;65634.97;5074672;28;20200;-59